sensor_id;sensor_type;location;lat;lon;timestamp;temperature;humidity
76291;DHT22;65100;46.884;17.410;2023-07-13T00:02:07;22.39;74.19
76291;DHT22;65100;46.884;17.410;2023-07-13T00:04:33;22.71;72.29
76291;DHT22;65100;46.884;17.410;2023-07-13T00:06:59;22.94;71.42
76291;DHT22;65100;46.884;17.410;2023-07-13T00:09:24;22.96;71.35
76291;DHT22;65100;46.884;17.410;2023-07-13T00:11:55;22.81;72.19
76291;DHT22;65100;46.884;17.410;2023-07-13T00:14:21;22.57;73.31
76291;DHT22;65100;46.884;17.410;2023-07-13T00:16:47;22.32;74.37
76291;DHT22;65100;46.884;17.410;2023-07-13T00:19:13;22.54;73.19
76291;DHT22;65100;46.884;17.410;2023-07-13T00:21:40;22.67;72.24
76291;DHT22;65100;46.884;17.410;2023-07-13T00:24:07;22.76;71.66
76291;DHT22;65100;46.884;17.410;2023-07-13T00:26:33;22.71;72.66
76291;DHT22;65100;46.884;17.410;2023-07-13T00:28:59;22.59;72.97
76291;DHT22;65100;46.884;17.410;2023-07-13T00:31:25;22.57;72.66
76291;DHT22;65100;46.884;17.410;2023-07-13T00:33:51;22.43;73.17
76291;DHT22;65100;46.884;17.410;2023-07-13T00:36:16;21.83;75.79
76291;DHT22;65100;46.884;17.410;2023-07-13T00:38:42;21.59;76.33
76291;DHT22;65100;46.884;17.410;2023-07-13T00:41:09;21.90;74.72
76291;DHT22;65100;46.884;17.410;2023-07-13T00:43:34;21.82;75.16
76291;DHT22;65100;46.884;17.410;2023-07-13T00:46:14;21.82;75.70
76291;DHT22;65100;46.884;17.410;2023-07-13T00:48:40;22.03;74.70
76291;DHT22;65100;46.884;17.410;2023-07-13T00:51:06;21.69;75.98
76291;DHT22;65100;46.884;17.410;2023-07-13T00:53:32;21.88;75.82
76291;DHT22;65100;46.884;17.410;2023-07-13T00:55:58;21.75;76.22
76291;DHT22;65100;46.884;17.410;2023-07-13T00:58:25;21.86;75.49
76291;DHT22;65100;46.884;17.410;2023-07-13T01:00:52;21.79;75.69
76291;DHT22;65100;46.884;17.410;2023-07-13T01:03:18;21.59;76.40
76291;DHT22;65100;46.884;17.410;2023-07-13T01:05:48;21.24;77.70
76291;DHT22;65100;46.884;17.410;2023-07-13T01:08:14;21.52;76.90
76291;DHT22;65100;46.884;17.410;2023-07-13T01:10:40;21.61;76.42
76291;DHT22;65100;46.884;17.410;2023-07-13T01:13:10;21.66;76.23
76291;DHT22;65100;46.884;17.410;2023-07-13T01:18:05;21.66;77.01
76291;DHT22;65100;46.884;17.410;2023-07-13T01:20:31;21.54;77.85
76291;DHT22;65100;46.884;17.410;2023-07-13T01:23:07;21.54;77.61
76291;DHT22;65100;46.884;17.410;2023-07-13T01:25:34;21.31;78.39
76291;DHT22;65100;46.884;17.410;2023-07-13T01:28:01;21.30;77.98
76291;DHT22;65100;46.884;17.410;2023-07-13T01:30:27;21.30;78.08
76291;DHT22;65100;46.884;17.410;2023-07-13T01:32:53;21.28;78.22
76291;DHT22;65100;46.884;17.410;2023-07-13T01:35:18;21.24;78.19
76291;DHT22;65100;46.884;17.410;2023-07-13T01:37:44;21.32;78.57
76291;DHT22;65100;46.884;17.410;2023-07-13T01:40:11;21.25;78.10
76291;DHT22;65100;46.884;17.410;2023-07-13T01:42:37;20.83;79.49
76291;DHT22;65100;46.884;17.410;2023-07-13T01:45:03;21.14;79.70
76291;DHT22;65100;46.884;17.410;2023-07-13T01:47:29;21.18;79.01
76291;DHT22;65100;46.884;17.410;2023-07-13T01:49:56;21.15;79.05
76291;DHT22;65100;46.884;17.410;2023-07-13T01:52:22;21.10;79.31
76291;DHT22;65100;46.884;17.410;2023-07-13T01:54:47;21.07;79.46
76291;DHT22;65100;46.884;17.410;2023-07-13T01:57:13;21.07;79.42
76291;DHT22;65100;46.884;17.410;2023-07-13T01:59:38;21.15;79.19
76291;DHT22;65100;46.884;17.410;2023-07-13T02:02:04;21.18;79.10
76291;DHT22;65100;46.884;17.410;2023-07-13T02:04:29;21.18;79.69
76291;DHT22;65100;46.884;17.410;2023-07-13T02:06:55;21.14;79.09
76291;DHT22;65100;46.884;17.410;2023-07-13T02:09:21;21.15;79.58
76291;DHT22;65100;46.884;17.410;2023-07-13T02:11:46;21.17;79.44
76291;DHT22;65100;46.884;17.410;2023-07-13T02:14:12;21.08;79.59
76291;DHT22;65100;46.884;17.410;2023-07-13T02:16:37;21.12;79.82
76291;DHT22;65100;46.884;17.410;2023-07-13T02:19:03;21.24;79.45
76291;DHT22;65100;46.884;17.410;2023-07-13T02:21:28;21.15;79.05
76291;DHT22;65100;46.884;17.410;2023-07-13T02:23:54;21.02;79.36
76291;DHT22;65100;46.884;17.410;2023-07-13T02:26:20;21.08;79.56
76291;DHT22;65100;46.884;17.410;2023-07-13T02:28:45;21.12;79.30
76291;DHT22;65100;46.884;17.410;2023-07-13T02:31:14;21.05;79.99
76291;DHT22;65100;46.884;17.410;2023-07-13T02:33:40;20.81;81.06
76291;DHT22;65100;46.884;17.410;2023-07-13T02:36:05;20.91;80.73
76291;DHT22;65100;46.884;17.410;2023-07-13T02:38:32;21.21;80.30
76291;DHT22;65100;46.884;17.410;2023-07-13T02:40:59;21.34;80.27
76291;DHT22;65100;46.884;17.410;2023-07-13T02:43:25;21.37;80.69
76291;DHT22;65100;46.884;17.410;2023-07-13T02:45:50;21.30;80.61
76291;DHT22;65100;46.884;17.410;2023-07-13T02:48:16;21.24;80.47
76291;DHT22;65100;46.884;17.410;2023-07-13T02:50:44;21.34;80.72
76291;DHT22;65100;46.884;17.410;2023-07-13T02:53:09;21.42;80.03
76291;DHT22;65100;46.884;17.410;2023-07-13T02:55:35;21.52;79.54
76291;DHT22;65100;46.884;17.410;2023-07-13T02:58:00;21.65;79.54
76291;DHT22;65100;46.884;17.410;2023-07-13T03:00:26;21.74;79.25
76291;DHT22;65100;46.884;17.410;2023-07-13T03:02:53;21.69;78.99
76291;DHT22;65100;46.884;17.410;2023-07-13T03:05:18;21.74;79.10
76291;DHT22;65100;46.884;17.410;2023-07-13T03:07:44;21.78;79.21
76291;DHT22;65100;46.884;17.410;2023-07-13T03:10:09;21.77;79.41
76291;DHT22;65100;46.884;17.410;2023-07-13T03:12:35;21.63;79.52
76291;DHT22;65100;46.884;17.410;2023-07-13T03:15:01;21.74;80.18
76291;DHT22;65100;46.884;17.410;2023-07-13T03:17:26;21.65;80.83
76291;DHT22;65100;46.884;17.410;2023-07-13T03:19:52;21.62;81.89
76291;DHT22;65100;46.884;17.410;2023-07-13T03:22:21;21.66;81.43
76291;DHT22;65100;46.884;17.410;2023-07-13T03:24:47;21.41;82.17
76291;DHT22;65100;46.884;17.410;2023-07-13T03:27:14;21.14;84.03
76291;DHT22;65100;46.884;17.410;2023-07-13T03:29:40;20.70;85.22
76291;DHT22;65100;46.884;17.410;2023-07-13T03:32:05;20.22;87.39
76291;DHT22;65100;46.884;17.410;2023-07-13T03:34:31;20.29;88.06
76291;DHT22;65100;46.884;17.410;2023-07-13T03:36:57;20.15;87.02
76291;DHT22;65100;46.884;17.410;2023-07-13T03:39:23;20.15;88.18
76291;DHT22;65100;46.884;17.410;2023-07-13T03:41:49;20.34;87.92
76291;DHT22;65100;46.884;17.410;2023-07-13T03:44:16;20.32;87.20
76291;DHT22;65100;46.884;17.410;2023-07-13T03:46:42;20.33;87.56
76291;DHT22;65100;46.884;17.410;2023-07-13T03:49:09;20.29;87.57
76291;DHT22;65100;46.884;17.410;2023-07-13T03:51:35;20.22;87.73
76291;DHT22;65100;46.884;17.410;2023-07-13T03:54:01;20.19;87.30
76291;DHT22;65100;46.884;17.410;2023-07-13T03:56:28;20.17;87.75
76291;DHT22;65100;46.884;17.410;2023-07-13T03:58:54;20.23;87.73
76291;DHT22;65100;46.884;17.410;2023-07-13T04:01:22;20.27;88.03
76291;DHT22;65100;46.884;17.410;2023-07-13T04:03:48;20.27;88.03
76291;DHT22;65100;46.884;17.410;2023-07-13T04:06:28;20.25;88.18
76291;DHT22;65100;46.884;17.410;2023-07-13T04:08:56;20.17;88.01
76291;DHT22;65100;46.884;17.410;2023-07-13T04:11:25;20.06;88.14
76291;DHT22;65100;46.884;17.410;2023-07-13T04:13:51;20.13;87.99
76291;DHT22;65100;46.884;17.410;2023-07-13T04:16:18;20.13;87.65
76291;DHT22;65100;46.884;17.410;2023-07-13T04:18:44;20.20;88.00
76291;DHT22;65100;46.884;17.410;2023-07-13T04:21:11;20.34;87.48
76291;DHT22;65100;46.884;17.410;2023-07-13T04:23:37;20.23;87.33
76291;DHT22;65100;46.884;17.410;2023-07-13T04:26:03;20.34;86.57
76291;DHT22;65100;46.884;17.410;2023-07-13T04:28:29;20.34;87.01
76291;DHT22;65100;46.884;17.410;2023-07-13T04:30:55;20.48;87.05
76291;DHT22;65100;46.884;17.410;2023-07-13T04:33:21;20.54;87.25
76291;DHT22;65100;46.884;17.410;2023-07-13T04:35:48;20.44;87.14
76291;DHT22;65100;46.884;17.410;2023-07-13T04:38:14;20.39;88.56
76291;DHT22;65100;46.884;17.410;2023-07-13T04:40:44;20.32;88.31
76291;DHT22;65100;46.884;17.410;2023-07-13T04:43:10;20.33;88.36
76291;DHT22;65100;46.884;17.410;2023-07-13T04:45:36;20.33;88.20
76291;DHT22;65100;46.884;17.410;2023-07-13T04:48:01;20.25;88.15
76291;DHT22;65100;46.884;17.410;2023-07-13T04:50:27;20.15;88.34
76291;DHT22;65100;46.884;17.410;2023-07-13T04:52:52;19.78;88.50
76291;DHT22;65100;46.884;17.410;2023-07-13T04:55:19;19.44;89.93
76291;DHT22;65100;46.884;17.410;2023-07-13T04:57:45;18.97;90.46
76291;DHT22;65100;46.884;17.410;2023-07-13T05:00:12;19.01;89.89
76291;DHT22;65100;46.884;17.410;2023-07-13T05:02:39;19.08;89.87
76291;DHT22;65100;46.884;17.410;2023-07-13T05:05:05;19.19;87.38
76291;DHT22;65100;46.884;17.410;2023-07-13T05:07:31;19.36;88.14
76291;DHT22;65100;46.884;17.410;2023-07-13T05:09:59;19.34;89.64
76291;DHT22;65100;46.884;17.410;2023-07-13T05:12:25;19.38;90.71
76291;DHT22;65100;46.884;17.410;2023-07-13T05:14:50;19.59;92.03
76291;DHT22;65100;46.884;17.410;2023-07-13T05:17:16;19.65;92.32
76291;DHT22;65100;46.884;17.410;2023-07-13T05:19:41;19.78;90.55
76291;DHT22;65100;46.884;17.410;2023-07-13T05:22:07;19.78;90.47
76291;DHT22;65100;46.884;17.410;2023-07-13T05:24:33;19.99;90.21
76291;DHT22;65100;46.884;17.410;2023-07-13T05:26:58;19.78;89.82
76291;DHT22;65100;46.884;17.410;2023-07-13T05:29:24;19.99;90.99
76291;DHT22;65100;46.884;17.410;2023-07-13T05:31:50;20.08;89.15
76291;DHT22;65100;46.884;17.410;2023-07-13T05:34:16;20.26;87.80
76291;DHT22;65100;46.884;17.410;2023-07-13T05:36:41;20.29;87.54
76291;DHT22;65100;46.884;17.410;2023-07-13T05:39:07;20.32;88.61
76291;DHT22;65100;46.884;17.410;2023-07-13T05:41:32;20.56;89.18
76291;DHT22;65100;46.884;17.410;2023-07-13T05:43:58;20.74;86.67
76291;DHT22;65100;46.884;17.410;2023-07-13T05:46:24;20.94;85.72
76291;DHT22;65100;46.884;17.410;2023-07-13T05:48:49;20.94;86.96
76291;DHT22;65100;46.884;17.410;2023-07-13T05:51:14;21.07;85.50
76291;DHT22;65100;46.884;17.410;2023-07-13T05:53:40;21.10;86.29
76291;DHT22;65100;46.884;17.410;2023-07-13T05:56:05;21.34;84.76
76291;DHT22;65100;46.884;17.410;2023-07-13T05:58:31;21.41;88.07
76291;DHT22;65100;46.884;17.410;2023-07-13T06:01:05;21.75;86.81
76291;DHT22;65100;46.884;17.410;2023-07-13T06:03:31;21.78;86.20
76291;DHT22;65100;46.884;17.410;2023-07-13T06:05:56;21.86;87.20
76291;DHT22;65100;46.884;17.410;2023-07-13T06:08:22;21.90;86.08
76291;DHT22;65100;46.884;17.410;2023-07-13T06:10:47;22.14;86.55
76291;DHT22;65100;46.884;17.410;2023-07-13T06:13:13;22.37;85.33
76291;DHT22;65100;46.884;17.410;2023-07-13T06:15:38;22.29;85.41
76291;DHT22;65100;46.884;17.410;2023-07-13T06:18:04;22.40;83.94
76291;DHT22;65100;46.884;17.410;2023-07-13T06:20:29;22.19;83.35
76291;DHT22;65100;46.884;17.410;2023-07-13T06:22:55;22.12;84.45
76291;DHT22;65100;46.884;17.410;2023-07-13T06:25:20;22.17;83.15
76291;DHT22;65100;46.884;17.410;2023-07-13T06:27:46;22.22;82.98
76291;DHT22;65100;46.884;17.410;2023-07-13T06:30:12;22.23;84.12
76291;DHT22;65100;46.884;17.410;2023-07-13T06:32:37;22.33;84.36
76291;DHT22;65100;46.884;17.410;2023-07-13T06:35:03;22.43;82.70
76291;DHT22;65100;46.884;17.410;2023-07-13T06:37:29;22.52;82.26
76291;DHT22;65100;46.884;17.410;2023-07-13T06:39:54;22.47;82.47
76291;DHT22;65100;46.884;17.410;2023-07-13T06:42:20;22.56;83.14
76291;DHT22;65100;46.884;17.410;2023-07-13T06:44:45;22.61;83.46
76291;DHT22;65100;46.884;17.410;2023-07-13T06:47:11;22.90;82.24
76291;DHT22;65100;46.884;17.410;2023-07-13T06:49:36;23.18;83.13
76291;DHT22;65100;46.884;17.410;2023-07-13T06:52:02;23.37;82.63
76291;DHT22;65100;46.884;17.410;2023-07-13T06:54:27;24.36;79.50
76291;DHT22;65100;46.884;17.410;2023-07-13T06:56:53;25.03;77.76
76291;DHT22;65100;46.884;17.410;2023-07-13T06:59:19;25.42;74.16
76291;DHT22;65100;46.884;17.410;2023-07-13T07:01:44;25.67;73.06
76291;DHT22;65100;46.884;17.410;2023-07-13T07:04:10;25.28;75.18
76291;DHT22;65100;46.884;17.410;2023-07-13T07:06:35;25.11;74.49
76291;DHT22;65100;46.884;17.410;2023-07-13T07:09:00;24.91;75.25
76291;DHT22;65100;46.884;17.410;2023-07-13T07:11:26;25.07;75.79
76291;DHT22;65100;46.884;17.410;2023-07-13T07:13:53;25.24;75.95
76291;DHT22;65100;46.884;17.410;2023-07-13T07:16:19;25.21;75.62
76291;DHT22;65100;46.884;17.410;2023-07-13T07:18:45;25.14;74.21
76291;DHT22;65100;46.884;17.410;2023-07-13T07:21:11;25.10;74.74
76291;DHT22;65100;46.884;17.410;2023-07-13T07:23:37;25.44;73.95
76291;DHT22;65100;46.884;17.410;2023-07-13T07:26:03;25.27;73.33
76291;DHT22;65100;46.884;17.410;2023-07-13T07:28:28;25.16;74.29
76291;DHT22;65100;46.884;17.410;2023-07-13T07:30:56;25.86;75.16
76291;DHT22;65100;46.884;17.410;2023-07-13T07:33:22;25.78;71.44
76291;DHT22;65100;46.884;17.410;2023-07-13T07:35:48;26.55;69.38
76291;DHT22;65100;46.884;17.410;2023-07-13T07:38:14;26.96;68.28
76291;DHT22;65100;46.884;17.410;2023-07-13T07:40:40;26.93;68.46
76291;DHT22;65100;46.884;17.410;2023-07-13T07:43:10;26.79;68.71
76291;DHT22;65100;46.884;17.410;2023-07-13T07:45:36;26.96;69.01
76291;DHT22;65100;46.884;17.410;2023-07-13T07:48:03;26.93;68.41
76291;DHT22;65100;46.884;17.410;2023-07-13T07:50:29;26.90;68.01
76291;DHT22;65100;46.884;17.410;2023-07-13T07:52:54;27.37;66.48
76291;DHT22;65100;46.884;17.410;2023-07-13T07:55:24;27.17;66.09
76291;DHT22;65100;46.884;17.410;2023-07-13T07:57:51;27.37;66.40
76291;DHT22;65100;46.884;17.410;2023-07-13T08:00:16;26.82;68.84
76291;DHT22;65100;46.884;17.410;2023-07-13T08:02:43;26.53;68.55
76291;DHT22;65100;46.884;17.410;2023-07-13T08:05:09;26.21;69.18
76291;DHT22;65100;46.884;17.410;2023-07-13T08:07:36;26.25;69.55
76291;DHT22;65100;46.884;17.410;2023-07-13T08:10:02;26.63;68.30
76291;DHT22;65100;46.884;17.410;2023-07-13T08:12:27;27.06;65.56
76291;DHT22;65100;46.884;17.410;2023-07-13T08:14:52;26.21;67.12
76291;DHT22;65100;46.884;17.410;2023-07-13T08:17:25;26.09;69.31
76291;DHT22;65100;46.884;17.410;2023-07-13T08:19:51;26.52;68.95
76291;DHT22;65100;46.884;17.410;2023-07-13T08:22:16;26.29;66.08
76291;DHT22;65100;46.884;17.410;2023-07-13T08:24:42;25.75;69.28
76291;DHT22;65100;46.884;17.410;2023-07-13T08:27:09;26.05;70.04
76291;DHT22;65100;46.884;17.410;2023-07-13T08:29:37;26.22;67.29
76291;DHT22;65100;46.884;17.410;2023-07-13T08:32:23;25.52;68.18
76291;DHT22;65100;46.884;17.410;2023-07-13T08:35:09;25.11;70.85
76291;DHT22;65100;46.884;17.410;2023-07-13T08:37:34;25.44;71.30
76291;DHT22;65100;46.884;17.410;2023-07-13T08:40:00;25.78;68.34
76291;DHT22;65100;46.884;17.410;2023-07-13T08:42:32;26.05;69.84
76291;DHT22;65100;46.884;17.410;2023-07-13T08:47:50;26.32;68.12
76291;DHT22;65100;46.884;17.410;2023-07-13T08:50:23;26.50;68.76
76291;DHT22;65100;46.884;17.410;2023-07-13T08:52:50;26.48;66.21
76291;DHT22;65100;46.884;17.410;2023-07-13T08:55:24;25.88;65.72
76291;DHT22;65100;46.884;17.410;2023-07-13T08:58:18;26.05;67.84
76291;DHT22;65100;46.884;17.410;2023-07-13T09:00:51;26.57;66.77
76291;DHT22;65100;46.884;17.410;2023-07-13T09:03:22;26.64;64.53
76291;DHT22;65100;46.884;17.410;2023-07-13T09:05:53;26.52;65.68
76291;DHT22;65100;46.884;17.410;2023-07-13T09:08:57;26.55;64.49
76291;DHT22;65100;46.884;17.410;2023-07-13T09:11:27;26.62;63.30
76291;DHT22;65100;46.884;17.410;2023-07-13T09:16:42;26.62;63.52
76291;DHT22;65100;46.884;17.410;2023-07-13T09:19:16;26.52;64.45
76291;DHT22;65100;46.884;17.410;2023-07-13T09:21:45;26.63;62.93
76291;DHT22;65100;46.884;17.410;2023-07-13T09:24:34;26.52;62.71
76291;DHT22;65100;46.884;17.410;2023-07-13T09:27:09;26.66;62.49
76291;DHT22;65100;46.884;17.410;2023-07-13T09:29:41;26.43;66.00
76291;DHT22;65100;46.884;17.410;2023-07-13T09:32:10;26.93;62.32
76291;DHT22;65100;46.884;17.410;2023-07-13T09:34:38;27.27;62.57
76291;DHT22;65100;46.884;17.410;2023-07-13T09:37:03;27.31;63.34
76291;DHT22;65100;46.884;17.410;2023-07-13T09:39:33;27.68;61.87
76291;DHT22;65100;46.884;17.410;2023-07-13T09:42:17;27.41;61.66
76291;DHT22;65100;46.884;17.410;2023-07-13T09:44:54;27.68;63.38
76291;DHT22;65100;46.884;17.410;2023-07-13T09:47:26;27.92;62.84
76291;DHT22;65100;46.884;17.410;2023-07-13T09:50:00;28.01;60.34
76291;DHT22;65100;46.884;17.410;2023-07-13T09:52:27;28.05;59.18
76291;DHT22;65100;46.884;17.410;2023-07-13T09:54:54;28.06;59.65
76291;DHT22;65100;46.884;17.410;2023-07-13T09:57:26;27.95;60.08
76291;DHT22;65100;46.884;17.410;2023-07-13T09:59:54;28.11;60.78
76291;DHT22;65100;46.884;17.410;2023-07-13T10:02:31;27.67;59.49
76291;DHT22;65100;46.884;17.410;2023-07-13T10:05:10;27.84;58.28
76291;DHT22;65100;46.884;17.410;2023-07-13T10:07:43;27.92;58.10
76291;DHT22;65100;46.884;17.410;2023-07-13T10:12:40;27.68;60.10
76291;DHT22;65100;46.884;17.410;2023-07-13T10:15:18;28.08;58.67
76291;DHT22;65100;46.884;17.410;2023-07-13T10:17:45;27.84;60.24
76291;DHT22;65100;46.884;17.410;2023-07-13T10:20:11;27.91;58.78
76291;DHT22;65100;46.884;17.410;2023-07-13T10:22:50;28.29;57.87
76291;DHT22;65100;46.884;17.410;2023-07-13T10:25:26;28.44;58.14
76291;DHT22;65100;46.884;17.410;2023-07-13T10:27:56;28.53;57.11
76291;DHT22;65100;46.884;17.410;2023-07-13T10:32:53;28.70;58.94
76291;DHT22;65100;46.884;17.410;2023-07-13T10:35:21;28.69;57.20
76291;DHT22;65100;46.884;17.410;2023-07-13T10:37:52;28.63;56.97
76291;DHT22;65100;46.884;17.410;2023-07-13T10:40:23;28.76;57.98
76291;DHT22;65100;46.884;17.410;2023-07-13T10:42:52;28.82;58.42
76291;DHT22;65100;46.884;17.410;2023-07-13T10:45:23;28.84;59.12
76291;DHT22;65100;46.884;17.410;2023-07-13T10:47:51;28.88;56.94
76291;DHT22;65100;46.884;17.410;2023-07-13T10:50:27;28.93;56.04
76291;DHT22;65100;46.884;17.410;2023-07-13T10:52:55;28.84;55.73
76291;DHT22;65100;46.884;17.410;2023-07-13T10:58:24;29.00;55.14
76291;DHT22;65100;46.884;17.410;2023-07-13T11:01:10;28.92;56.59
76291;DHT22;65100;46.884;17.410;2023-07-13T11:04:00;28.75;56.06
76291;DHT22;65100;46.884;17.410;2023-07-13T11:08:56;28.95;55.83
76291;DHT22;65100;46.884;17.410;2023-07-13T11:18:48;28.90;55.02
76291;DHT22;65100;46.884;17.410;2023-07-13T11:21:21;28.89;56.43
76291;DHT22;65100;46.884;17.410;2023-07-13T11:24:02;28.98;54.87
76291;DHT22;65100;46.884;17.410;2023-07-13T11:31:43;29.10;52.87
76291;DHT22;65100;46.884;17.410;2023-07-13T11:34:21;29.23;55.40
76291;DHT22;65100;46.884;17.410;2023-07-13T11:36:49;28.98;52.18
76291;DHT22;65100;46.884;17.410;2023-07-13T11:39:28;28.92;54.33
76291;DHT22;65100;46.884;17.410;2023-07-13T11:41:57;28.76;53.30
76291;DHT22;65100;46.884;17.410;2023-07-13T11:44:27;28.44;52.66
76291;DHT22;65100;46.884;17.410;2023-07-13T11:46:58;28.35;54.15
76291;DHT22;65100;46.884;17.410;2023-07-13T11:49:29;28.45;54.84
76291;DHT22;65100;46.884;17.410;2023-07-13T11:51:56;28.65;54.17
76291;DHT22;65100;46.884;17.410;2023-07-13T11:54:33;28.70;52.35
76291;DHT22;65100;46.884;17.410;2023-07-13T11:57:24;28.70;52.83
76291;DHT22;65100;46.884;17.410;2023-07-13T11:59:52;28.73;54.99
76291;DHT22;65100;46.884;17.410;2023-07-13T12:02:31;28.96;54.10
76291;DHT22;65100;46.884;17.410;2023-07-13T12:04:59;29.23;53.32
76291;DHT22;65100;46.884;17.410;2023-07-13T12:07:29;29.13;54.41
76291;DHT22;65100;46.884;17.410;2023-07-13T12:10:28;29.53;53.88
76291;DHT22;65100;46.884;17.410;2023-07-13T12:13:03;29.58;52.38
76291;DHT22;65100;46.884;17.410;2023-07-13T12:15:37;29.30;54.26
76291;DHT22;65100;46.884;17.410;2023-07-13T12:18:19;29.50;54.24
76291;DHT22;65100;46.884;17.410;2023-07-13T12:20:46;29.54;52.37
76291;DHT22;65100;46.884;17.410;2023-07-13T12:25:46;29.47;52.08
76291;DHT22;65100;46.884;17.410;2023-07-13T12:29:05;28.99;51.68
76291;DHT22;65100;46.884;17.410;2023-07-13T12:34:00;29.19;53.96
76291;DHT22;65100;46.884;17.410;2023-07-13T12:36:29;29.33;53.60
76291;DHT22;65100;46.884;17.410;2023-07-13T12:39:00;29.37;52.21
76291;DHT22;65100;46.884;17.410;2023-07-13T12:41:29;29.29;50.34
76291;DHT22;65100;46.884;17.410;2023-07-13T12:43:55;29.35;53.14
76291;DHT22;65100;46.884;17.410;2023-07-13T12:46:24;29.33;52.85
76291;DHT22;65100;46.884;17.410;2023-07-13T12:48:52;29.35;51.44
76291;DHT22;65100;46.884;17.410;2023-07-13T12:51:22;29.13;51.64
76291;DHT22;65100;46.884;17.410;2023-07-13T12:53:50;28.96;52.28
76291;DHT22;65100;46.884;17.410;2023-07-13T12:56:24;29.03;52.65
76291;DHT22;65100;46.884;17.410;2023-07-13T12:58:57;29.17;52.36
76291;DHT22;65100;46.884;17.410;2023-07-13T13:01:27;29.03;49.15
76291;DHT22;65100;46.884;17.410;2023-07-13T13:03:54;28.98;51.55
76291;DHT22;65100;46.884;17.410;2023-07-13T13:06:23;29.00;50.66
76291;DHT22;65100;46.884;17.410;2023-07-13T13:08:54;28.98;51.95
76291;DHT22;65100;46.884;17.410;2023-07-13T13:11:21;28.92;53.41
76291;DHT22;65100;46.884;17.410;2023-07-13T13:13:48;28.90;53.59
76291;DHT22;65100;46.884;17.410;2023-07-13T13:16:30;28.84;54.05
76291;DHT22;65100;46.884;17.410;2023-07-13T13:18:59;28.72;52.77
76291;DHT22;65100;46.884;17.410;2023-07-13T13:21:28;28.60;53.94
76291;DHT22;65100;46.884;17.410;2023-07-13T13:23:53;28.26;55.79
76291;DHT22;65100;46.884;17.410;2023-07-13T13:26:20;28.16;54.30
76291;DHT22;65100;46.884;17.410;2023-07-13T13:28:46;28.02;55.15
76291;DHT22;65100;46.884;17.410;2023-07-13T13:31:13;27.97;56.98
76291;DHT22;65100;46.884;17.410;2023-07-13T13:33:42;27.94;56.68
76291;DHT22;65100;46.884;17.410;2023-07-13T13:36:20;27.90;58.16
76291;DHT22;65100;46.884;17.410;2023-07-13T13:38:47;27.67;59.71
76291;DHT22;65100;46.884;17.410;2023-07-13T13:41:13;27.57;60.81
76291;DHT22;65100;46.884;17.410;2023-07-13T13:43:43;27.51;61.35
76291;DHT22;65100;46.884;17.410;2023-07-13T13:46:18;27.30;63.70
76291;DHT22;65100;46.884;17.410;2023-07-13T13:48:44;27.10;67.61
76291;DHT22;65100;46.884;17.410;2023-07-13T13:51:18;27.16;66.28
76291;DHT22;65100;46.884;17.410;2023-07-13T13:53:45;26.75;70.65
76291;DHT22;65100;46.884;17.410;2023-07-13T13:56:12;26.02;73.87
76291;DHT22;65100;46.884;17.410;2023-07-13T13:58:38;26.06;73.93
76291;DHT22;65100;46.884;17.410;2023-07-13T14:01:03;25.52;76.08
76291;DHT22;65100;46.884;17.410;2023-07-13T14:03:33;25.81;77.24
76291;DHT22;65100;46.884;17.410;2023-07-13T14:05:59;25.27;78.54
76291;DHT22;65100;46.884;17.410;2023-07-13T14:08:25;25.21;76.84
76291;DHT22;65100;46.884;17.410;2023-07-13T14:10:53;25.34;74.06
76291;DHT22;65100;46.884;17.410;2023-07-13T14:13:27;25.42;74.14
76291;DHT22;65100;46.884;17.410;2023-07-13T14:15:54;25.31;76.62
76291;DHT22;65100;46.884;17.410;2023-07-13T14:18:20;25.08;78.23
76291;DHT22;65100;46.884;17.410;2023-07-13T14:20:47;25.10;81.28
76291;DHT22;65100;46.884;17.410;2023-07-13T14:23:14;24.96;82.07
76291;DHT22;65100;46.884;17.410;2023-07-13T14:25:40;24.96;82.18
76291;DHT22;65100;46.884;17.410;2023-07-13T14:28:21;24.94;82.27
76291;DHT22;65100;46.884;17.410;2023-07-13T14:30:48;25.27;80.78
76291;DHT22;65100;46.884;17.410;2023-07-13T14:33:14;25.26;79.71
76291;DHT22;65100;46.884;17.410;2023-07-13T14:35:40;25.17;78.49
76291;DHT22;65100;46.884;17.410;2023-07-13T14:38:10;25.02;79.30
76291;DHT22;65100;46.884;17.410;2023-07-13T14:40:37;25.02;78.75
76291;DHT22;65100;46.884;17.410;2023-07-13T14:43:03;24.79;79.43
76291;DHT22;65100;46.884;17.410;2023-07-13T14:45:30;24.82;78.30
76291;DHT22;65100;46.884;17.410;2023-07-13T14:47:57;24.64;80.03
76291;DHT22;65100;46.884;17.410;2023-07-13T14:50:31;24.77;80.40
76291;DHT22;65100;46.884;17.410;2023-07-13T14:52:57;24.55;80.67
76291;DHT22;65100;46.884;17.410;2023-07-13T14:55:23;24.23;81.40
76291;DHT22;65100;46.884;17.410;2023-07-13T14:57:51;24.05;81.69
76291;DHT22;65100;46.884;17.410;2023-07-13T15:00:19;24.16;80.99
76291;DHT22;65100;46.884;17.410;2023-07-13T15:02:48;23.88;82.00
76291;DHT22;65100;46.884;17.410;2023-07-13T15:05:17;23.75;82.26
76291;DHT22;65100;46.884;17.410;2023-07-13T15:07:43;24.23;81.75
76291;DHT22;65100;46.884;17.410;2023-07-13T15:10:13;24.26;80.73
76291;DHT22;65100;46.884;17.410;2023-07-13T15:12:39;23.94;81.05
76291;DHT22;65100;46.884;17.410;2023-07-13T15:15:05;23.59;82.18
76291;DHT22;65100;46.884;17.410;2023-07-13T15:19:56;23.40;85.87
76291;DHT22;65100;46.884;17.410;2023-07-13T15:22:21;22.97;86.21
76291;DHT22;65100;46.884;17.410;2023-07-13T15:24:47;22.97;85.84
76291;DHT22;65100;46.884;17.410;2023-07-13T15:27:12;22.98;85.79
76291;DHT22;65100;46.884;17.410;2023-07-13T15:29:38;23.27;87.20
76291;DHT22;65100;46.884;17.410;2023-07-13T15:32:12;23.45;86.44
76291;DHT22;65100;46.884;17.410;2023-07-13T15:34:38;23.27;87.73
76291;DHT22;65100;46.884;17.410;2023-07-13T15:37:08;23.54;85.98
76291;DHT22;65100;46.884;17.410;2023-07-13T15:39:33;23.51;86.87
76291;DHT22;65100;46.884;17.410;2023-07-13T15:42:00;23.47;88.02
76291;DHT22;65100;46.884;17.410;2023-07-13T15:44:29;23.64;87.35
76291;DHT22;65100;46.884;17.410;2023-07-13T15:46:56;23.57;87.49
76291;DHT22;65100;46.884;17.410;2023-07-13T15:49:22;23.45;88.29
76291;DHT22;65100;46.884;17.410;2023-07-13T15:51:48;23.52;87.05
76291;DHT22;65100;46.884;17.410;2023-07-13T15:54:16;23.58;85.57
76291;DHT22;65100;46.884;17.410;2023-07-13T15:56:42;23.45;85.41
76291;DHT22;65100;46.884;17.410;2023-07-13T15:59:11;23.58;86.01
76291;DHT22;65100;46.884;17.410;2023-07-13T16:01:39;23.68;84.66